Time;durP1;ratioP1;P1;durP2;ratioP2;P2;SDS_P1;SDS_P2;PMS_P1;PMS_P2;Temp;Humidity;BMP_temperature;BMP_pressure;BME280_temperature;BME280_humidity;BME280_pressure;Samples;Min_cycle;Max_cycle;Signal;HPM_P1;HPM_P2
2022/11/28 00:01:01;;;;;;;25.52;10.32;;;;;;;-3.42;83.82;100999.38;4937287;29;20047;-70
2022/11/28 00:03:26;;;;;;;22.80;8.98;;;;;;;-3.42;83.59;101002.81;4938277;29;20085;-70
2022/11/28 00:05:52;;;;;;;20.63;9.40;;;;;;;-3.43;83.92;101000.31;4939368;29;20130;-70
2022/11/28 00:08:18;;;;;;;27.27;10.32;;;;;;;-3.42;84.07;101007.16;4956796;29;20047;-71
2022/11/28 00:10:43;;;;;;;22.30;10.18;;;;;;;-3.38;83.99;101008.63;4956491;29;20051;-72
2022/11/28 00:13:09;;;;;;;20.65;9.60;;;;;;;-3.36;83.92;101011.09;4954089;29;20198;-70
2022/11/28 00:15:35;;;;;;;25.15;10.30;;;;;;;-3.42;83.85;101005.38;4953535;29;20043;-71
2022/11/28 00:18:02;;;;;;;27.20;11.40;;;;;;;-3.39;84.49;101004.34;4936753;29;20050;-71
2022/11/28 00:20:30;;;;;;;26.08;10.57;;;;;;;-3.32;84.05;101008.19;4921033;29;20047;-71
2022/11/28 00:22:55;;;;;;;21.95;8.32;;;;;;;-3.38;83.92;101007.75;4953872;29;20094;-72
2022/11/28 00:25:21;;;;;;;26.45;11.40;;;;;;;-3.42;84.46;101005.38;4936641;29;20094;-70
2022/11/28 00:27:46;;;;;;;18.25;8.90;;;;;;;-3.56;84.48;100995.19;4953971;29;20536;-71
2022/11/28 00:30:12;;;;;;;17.77;7.45;;;;;;;-3.44;84.60;100994.31;4937877;29;20051;-71
2022/11/28 00:32:38;;;;;;;23.33;9.48;;;;;;;-3.46;84.81;100988.41;4920961;29;20547;-71
2022/11/28 00:35:04;;;;;;;24.15;10.40;;;;;;;-3.39;84.80;101001.75;4936178;29;20047;-73
2022/11/28 00:37:29;;;;;;;21.77;8.90;;;;;;;-3.54;85.37;100997.66;4939448;29;20071;-71
2022/11/28 00:39:55;;;;;;;29.85;10.40;;;;;;;-3.48;84.73;101000.63;4956636;29;20147;-71
2022/11/28 00:42:21;;;;;;;17.90;8.80;;;;;;;-3.46;85.21;100992.75;4955996;29;20047;-71
2022/11/28 00:44:48;;;;;;;22.92;9.20;;;;;;;-3.44;85.12;100996.09;4956671;29;20066;-71
2022/11/28 00:47:14;;;;;;;24.90;9.48;;;;;;;-3.47;85.36;100991.94;4936350;29;20516;-71
2022/11/28 00:49:40;;;;;;;20.90;8.32;;;;;;;-3.45;84.81;100995.25;4936401;29;20505;-71
2022/11/28 00:52:06;;;;;;;27.27;11.00;;;;;;;-3.37;84.85;100994.72;4953394;29;20094;-71
2022/11/28 00:54:32;;;;;;;26.17;10.77;;;;;;;-3.35;84.68;100997.19;4936039;29;20047;-71
2022/11/28 00:56:58;;;;;;;23.25;9.85;;;;;;;-3.37;84.14;100988.69;4935598;29;20385;-71
2022/11/28 00:59:23;;;;;;;24.35;10.63;;;;;;;-3.36;84.72;100990.34;4936395;29;20046;-71
2022/11/28 01:01:49;;;;;;;15.30;6.93;;;;;;;-3.42;84.36;100992.44;4953308;29;20036;-71
2022/11/28 01:04:16;;;;;;;17.42;7.88;;;;;;;-3.44;84.90;100989.13;4920301;29;20459;-71
2022/11/28 01:06:44;;;;;;;20.15;10.50;;;;;;;-3.47;85.02;100989.34;4919857;29;20118;-72
2022/11/28 01:09:16;;;;;;;26.08;10.05;;;;;;;-3.46;85.27;100990.16;4935840;29;20050;-71
2022/11/28 01:11:43;;;;;;;21.75;9.55;;;;;;;-3.42;85.31;100981.22;4936249;29;20415;-71
2022/11/28 01:14:09;;;;;;;27.33;11.55;;;;;;;-3.44;85.01;100972.75;4938857;29;20599;-72
2022/11/28 01:16:35;;;;;;;18.67;8.77;;;;;;;-3.42;84.73;100978.63;4939398;29;20051;-71
2022/11/28 01:19:00;;;;;;;18.52;8.63;;;;;;;-3.51;85.44;100976.69;4953884;29;20043;-71
2022/11/28 01:21:26;;;;;;;21.95;8.98;;;;;;;-3.48;85.76;100986.84;4920170;29;20500;-70
2022/11/28 01:23:52;;;;;;;21.88;10.43;;;;;;;-3.46;85.53;100972.84;4920273;29;20047;-71
2022/11/28 01:26:24;;;;;;;25.05;9.55;;;;;;;-3.44;85.46;100983.13;4953387;29;20051;-71
2022/11/28 01:28:50;;;;;;;22.85;10.32;;;;;;;-3.37;85.21;100976.56;4904381;29;20070;-70
2022/11/28 01:31:18;;;;;;;22.33;10.23;;;;;;;-3.30;84.45;100990.72;4919442;29;20047;-71
2022/11/28 01:33:44;;;;;;;20.35;9.93;;;;;;;-3.24;84.33;100982.50;4952877;29;20047;-71
2022/11/28 01:36:11;;;;;;;14.73;7.47;;;;;;;-3.36;84.81;100983.38;4953354;29;20050;-68
2022/11/28 01:38:37;;;;;;;20.98;9.70;;;;;;;-3.32;84.57;100984.84;4904154;29;20043;-71
2022/11/28 01:41:03;;;;;;;22.13;10.57;;;;;;;-3.32;84.37;100992.63;4935542;29;20070;-69
2022/11/28 01:43:29;;;;;;;15.80;8.32;;;;;;;-3.32;85.19;100984.03;4935616;29;20504;-69
2022/11/28 01:45:55;;;;;;;16.63;9.32;;;;;;;-3.26;84.88;100978.41;4919814;29;20102;-69
2022/11/28 01:48:27;;;;;;;24.85;11.52;;;;;;;-3.16;84.29;100986.34;4952908;29;20073;-69
2022/11/28 01:51:00;;;;;;;16.48;8.38;;;;;;;-3.24;84.30;100986.88;4903629;29;20047;-69
2022/11/28 01:53:28;;;;;;;17.75;8.70;;;;;;;-3.26;84.32;100988.78;4953138;29;20129;-69
2022/11/28 01:56:01;;;;;;;16.95;7.78;;;;;;;-3.42;84.46;100987.25;4935843;29;20573;-69
2022/11/28 01:58:28;;;;;;;16.15;7.82;;;;;;;-3.36;84.95;100992.94;4936047;29;20044;-69
2022/11/28 02:00:54;;;;;;;18.95;10.25;;;;;;;-3.33;84.95;100980.59;4919477;29;20061;-70
2022/11/28 02:03:24;;;;;;;18.20;8.93;;;;;;;-3.25;83.89;100983.47;4935614;29;20043;-70
2022/11/28 02:05:50;;;;;;;18.05;9.55;;;;;;;-3.28;84.53;100978.50;4904683;29;20130;-69
2022/11/28 02:08:16;;;;;;;17.85;9.13;;;;;;;-3.20;83.58;100999.53;4956241;29;20039;-70
2022/11/28 02:10:53;;;;;;;22.40;10.65;;;;;;;-3.22;83.96;100998.81;4938790;29;20055;-70
2022/11/28 02:13:26;;;;;;;20.38;9.50;;;;;;;-3.15;83.54;100999.19;4938879;29;20102;-69
2022/11/28 02:16:09;;;;;;;17.77;8.82;;;;;;;-3.18;82.79;100991.63;4939087;29;20047;-69
2022/11/28 02:18:46;;;;;;;17.40;7.57;;;;;;;-3.30;83.26;100989.91;4938647;29;20051;-70
2022/11/28 02:21:30;;;;;;;15.73;8.00;;;;;;;-3.27;82.64;100989.69;4956363;29;20063;-69
2022/11/28 02:24:30;;;;;;;14.90;7.85;;;;;;;-3.35;83.23;100995.44;4938925;29;20066;-70
2022/11/28 02:27:05;;;;;;;15.73;7.38;;;;;;;-3.36;83.30;100998.13;4922894;29;20517;-70
2022/11/28 02:30:04;;;;;;;14.98;7.93;;;;;;;-3.45;82.95;100991.81;4955510;29;20493;-69
2022/11/28 02:32:45;;;;;;;16.40;8.88;;;;;;;-3.40;83.06;101009.66;4938661;29;20509;-69
2022/11/28 02:35:29;;;;;;;16.13;8.13;;;;;;;-3.48;83.93;101011.00;4956189;29;20050;-69
2022/11/28 02:38:25;;;;;;;17.30;8.45;;;;;;;-3.63;84.34;101016.44;4955659;29;20039;-69
2022/11/28 02:41:07;;;;;;;21.30;9.68;;;;;;;-3.70;84.35;101014.28;4955895;29;20556;-70
2022/11/28 02:43:52;;;;;;;11.90;6.22;;;;;;;-3.78;84.52;101001.00;4955627;29;20128;-69
2022/11/28 02:46:27;;;;;;;19.48;8.32;;;;;;;-3.82;84.22;101009.06;4938320;29;20327;-68
2022/11/28 02:49:05;;;;;;;14.40;5.80;;;;;;;-3.82;83.82;101025.47;4937482;29;20039;-68
2022/11/28 02:51:48;;;;;;;15.65;7.68;;;;;;;-3.86;84.40;101025.78;4906757;29;20101;-69
2022/11/28 02:54:15;;;;;;;13.10;7.82;;;;;;;-3.79;84.11;101016.66;4922243;29;20067;-68
2022/11/28 02:56:48;;;;;;;18.27;9.02;;;;;;;-3.80;84.43;101030.53;4955620;29;20055;-69
2022/11/28 02:59:38;;;;;;;19.83;9.23;;;;;;;-3.77;84.54;101032.91;4937996;29;20098;-68
2022/11/28 03:02:12;;;;;;;17.33;9.57;;;;;;;-3.72;84.01;101036.03;4938252;29;20047;-68
2022/11/28 03:04:53;;;;;;;18.00;8.60;;;;;;;-3.70;84.16;101031.59;4938264;29;20098;-68
2022/11/28 03:07:21;;;;;;;21.17;11.23;;;;;;;-3.66;84.23;101030.44;4938404;29;20567;-69
2022/11/28 03:10:08;;;;;;;20.20;10.45;;;;;;;-3.60;83.78;101030.00;4937600;29;20661;-69
2022/11/28 03:13:00;;;;;;;20.27;10.57;;;;;;;-3.56;83.34;101031.47;4937923;29;20051;-69
2022/11/28 03:15:33;;;;;;;18.92;10.65;;;;;;;-3.45;83.28;101030.72;4916019;29;20062;-69
2022/11/28 03:18:13;;;;;;;16.15;8.48;;;;;;;-3.53;82.71;101045.97;4905095;29;20043;-69
2022/11/28 03:20:44;;;;;;;18.65;9.65;;;;;;;-3.70;82.79;101036.78;4922114;29;20074;-68
2022/11/28 03:23:19;;;;;;;14.73;7.20;;;;;;;-3.91;83.43;101047.66;4937865;29;20055;-69
2022/11/28 03:25:47;;;;;;;21.10;9.50;;;;;;;-3.88;83.58;101041.44;4937983;29;20420;-69
2022/11/28 03:28:20;;;;;;;21.25;11.05;;;;;;;-3.83;82.69;101046.28;4954411;29;20051;-69
2022/11/28 03:31:14;;;;;;;18.13;9.70;;;;;;;-3.85;83.33;101050.75;4937961;29;20055;-69
2022/11/28 03:33:43;;;;;;;16.20;9.02;;;;;;;-3.81;82.76;101047.84;4920677;29;20097;-69
2022/11/28 03:36:21;;;;;;;15.57;9.43;;;;;;;-3.76;82.31;101050.97;4921668;29;20415;-68
2022/11/28 03:38:59;;;;;;;16.55;9.07;;;;;;;-3.75;82.08;101050.03;4937862;29;20039;-69
2022/11/28 03:41:34;;;;;;;19.40;10.45;;;;;;;-3.58;82.13;101056.66;4937733;29;20066;-69
2022/11/28 03:44:01;;;;;;;21.33;11.25;;;;;;;-3.52;81.44;101058.00;4937477;29;20043;-69
2022/11/28 03:46:34;;;;;;;17.83;10.82;;;;;;;-3.44;81.21;101064.31;4936967;29;20421;-68
2022/11/28 03:49:01;;;;;;;17.25;8.98;;;;;;;-3.47;80.20;101059.34;4935408;29;20047;-69
2022/11/28 03:51:31;;;;;;;14.18;9.07;;;;;;;-3.64;80.96;101059.69;4918467;29;20059;-68
2022/11/28 03:54:24;;;;;;;17.13;9.98;;;;;;;-3.67;81.16;101062.47;4902929;29;20044;-69
2022/11/28 03:57:01;;;;;;;12.10;5.60;;;;;;;-3.86;80.42;101062.88;4904911;29;20063;-68
2022/11/28 03:59:32;;;;;;;16.90;8.60;;;;;;;-3.86;80.65;101070.66;4954551;29;20131;-68
2022/11/28 04:02:24;;;;;;;11.82;7.40;;;;;;;-4.01;81.46;101080.28;4954549;29;20071;-69
2022/11/28 04:05:00;;;;;;;13.10;8.27;;;;;;;-4.12;81.02;101072.38;4912512;29;20055;-68
2022/11/28 04:08:09;;;;;;;15.70;8.75;;;;;;;-4.16;81.23;101070.94;4954135;29;20090;-68
2022/11/28 04:10:41;;;;;;;13.48;7.55;;;;;;;-4.27;82.18;101070.81;4913595;29;20048;-69
2022/11/28 04:13:22;;;;;;;18.73;10.27;;;;;;;-4.28;81.72;101080.34;4913558;29;20052;-69
2022/11/28 04:16:12;;;;;;;20.48;10.27;;;;;;;-4.15;81.95;101082.94;4940016;29;20071;-69
2022/11/28 04:18:55;;;;;;;14.05;7.97;;;;;;;-4.14;81.04;101077.69;4953427;29;20071;-69
2022/11/28 04:21:38;;;;;;;14.60;7.82;;;;;;;-4.14;81.78;101080.25;4936878;29;20441;-69
2022/11/28 04:24:10;;;;;;;12.10;7.90;;;;;;;-4.17;81.46;101093.41;4899097;29;20487;-73
2022/11/28 04:26:41;;;;;;;15.05;8.00;;;;;;;-4.23;81.39;101082.63;4914351;29;20055;-70
2022/11/28 04:29:10;;;;;;;16.50;9.52;;;;;;;-4.24;82.23;101086.13;4915494;29;20040;-71
2022/11/28 04:31:36;;;;;;;18.38;9.85;;;;;;;-4.19;81.92;101079.72;4898553;29;20068;-71
2022/11/28 04:34:07;;;;;;;16.52;9.88;;;;;;;-4.03;81.78;101074.38;4914396;29;20087;-72
2022/11/28 04:36:35;;;;;;;14.57;9.55;;;;;;;-3.96;80.99;101082.56;4896424;29;20060;-69
2022/11/28 04:39:02;;;;;;;18.35;10.60;;;;;;;-3.92;80.75;101086.59;4915285;29;20044;-69
2022/11/28 04:41:31;;;;;;;17.05;9.57;;;;;;;-3.90;81.56;101087.34;4898668;29;20055;-68
2022/11/28 04:44:08;;;;;;;16.25;8.65;;;;;;;-3.90;80.63;101090.75;4915521;29;20044;-69
2022/11/28 04:46:42;;;;;;;18.23;8.63;;;;;;;-4.03;80.93;101094.25;4913833;29;20058;-71
2022/11/28 04:49:08;;;;;;;15.65;8.35;;;;;;;-4.08;81.39;101098.94;4913529;29;20048;-68
2022/11/28 04:51:58;;;;;;;18.08;9.60;;;;;;;-4.05;82.04;101102.13;4882467;29;20066;-69
2022/11/28 04:54:52;;;;;;;19.17;10.73;;;;;;;-3.96;81.04;101095.53;4915344;29;20412;-69
2022/11/28 04:57:29;;;;;;;21.95;10.48;;;;;;;-3.85;80.95;101097.38;4881343;29;20048;-69
2022/11/28 04:59:55;;;;;;;17.80;10.02;;;;;;;-3.91;80.20;101101.25;4898571;29;20044;-72
2022/11/28 05:02:21;;;;;;;18.92;10.20;;;;;;;-3.93;81.20;101092.72;4914018;29;20189;-70
2022/11/28 05:04:47;;;;;;;23.88;11.38;;;;;;;-3.89;81.30;101099.34;4913747;29;20040;-70
2022/11/28 05:07:13;;;;;;;17.10;8.07;;;;;;;-3.92;80.72;101094.38;4914997;29;20553;-69
2022/11/28 05:09:39;;;;;;;20.42;9.30;;;;;;;-3.88;80.42;101104.44;4915507;29;20059;-72
2022/11/28 05:12:05;;;;;;;22.33;9.38;;;;;;;-3.97;81.35;101101.63;4898122;29;20568;-71
2022/11/28 05:14:31;;;;;;;13.98;8.10;;;;;;;-4.00;81.36;101112.19;4915323;29;20131;-71
2022/11/28 05:16:56;;;;;;;19.80;9.43;;;;;;;-4.04;81.05;101108.97;4897704;29;20541;-72
2022/11/28 05:19:22;;;;;;;15.32;8.40;;;;;;;-4.05;81.28;101115.09;4913809;29;20044;-71
2022/11/28 05:21:48;;;;;;;16.35;9.10;;;;;;;-4.08;81.14;101117.06;4921260;29;20134;-71
2022/11/28 05:24:13;;;;;;;18.63;9.30;;;;;;;-4.02;80.78;101117.47;4936331;29;20464;-71
2022/11/28 05:26:39;;;;;;;23.02;9.88;;;;;;;-4.02;81.21;101125.25;4953225;29;20485;-72
2022/11/28 05:29:05;;;;;;;22.27;11.48;;;;;;;-3.89;81.75;101113.13;4953329;29;20043;-71
2022/11/28 05:31:31;;;;;;;19.90;11.88;;;;;;;-3.76;81.04;101122.72;4936076;29;20556;-69
2022/11/28 05:33:56;;;;;;;19.67;10.23;;;;;;;-3.82;80.25;101125.69;4935539;29;20409;-69
2022/11/28 05:36:22;;;;;;;17.90;10.98;;;;;;;-3.68;80.72;101130.78;4934728;29;20047;-67
2022/11/28 05:38:48;;;;;;;20.25;10.82;;;;;;;-3.53;80.45;101141.88;4920257;29;20050;-70
2022/11/28 05:41:22;;;;;;;19.15;10.23;;;;;;;-3.43;79.50;101138.56;4952784;28;20047;-69
2022/11/28 05:43:48;;;;;;;20.55;11.70;;;;;;;-3.37;79.08;101147.69;4938915;29;20041;-69
2022/11/28 05:46:14;;;;;;;17.52;10.57;;;;;;;-3.29;79.01;101142.00;4957029;29;20099;-68
2022/11/28 05:48:40;;;;;;;16.98;9.60;;;;;;;-3.28;78.86;101148.84;4939643;29;20047;-68
2022/11/28 05:51:07;;;;;;;17.35;10.05;;;;;;;-3.39;79.15;101148.72;4923562;29;20348;-69
2022/11/28 05:53:32;;;;;;;18.25;9.65;;;;;;;-3.49;79.38;101144.16;4938943;29;20051;-69
2022/11/28 05:55:58;;;;;;;26.80;11.02;;;;;;;-3.46;79.72;101148.31;4937542;29;20258;-69
2022/11/28 05:58:24;;;;;;;17.30;9.73;;;;;;;-3.42;79.82;101153.19;4938654;29;20095;-69
2022/11/28 06:00:50;;;;;;;18.98;11.27;;;;;;;-3.43;79.08;101148.94;4937458;29;20457;-69
2022/11/28 06:03:15;;;;;;;20.70;11.25;;;;;;;-3.35;79.45;101155.34;4939052;29;20572;-69
2022/11/28 06:05:42;;;;;;;19.58;10.95;;;;;;;-3.30;79.06;101161.06;4956152;29;20089;-69
2022/11/28 06:08:10;;;;;;;18.58;9.70;;;;;;;-3.32;79.46;101156.00;4954508;29;20035;-69
2022/11/28 06:10:36;;;;;;;20.95;11.60;;;;;;;-3.25;79.35;101153.81;4937774;29;20043;-69
2022/11/28 06:13:02;;;;;;;20.58;11.18;;;;;;;-3.20;78.78;101151.75;4920981;29;20047;-69
2022/11/28 06:15:31;;;;;;;24.42;11.43;;;;;;;-3.14;78.20;101148.72;4956146;29;20051;-69
2022/11/28 06:17:57;;;;;;;22.08;11.18;;;;;;;-3.18;78.79;101156.81;4956037;29;20054;-70
2022/11/28 06:20:22;;;;;;;21.52;10.48;;;;;;;-3.23;78.79;101155.38;4955426;29;20051;-69
2022/11/28 06:22:48;;;;;;;19.63;9.02;;;;;;;-3.30;78.83;101153.28;4954882;28;20545;-70
2022/11/28 06:25:14;;;;;;;21.50;11.20;;;;;;;-3.32;79.24;101158.59;4937918;29;20055;-71
2022/11/28 06:27:40;;;;;;;19.63;10.43;;;;;;;-3.21;79.04;101163.03;4938767;29;20452;-70
2022/11/28 06:30:06;;;;;;;19.42;10.32;;;;;;;-3.23;78.75;101170.94;4904770;29;20051;-69
2022/11/28 06:32:34;;;;;;;21.08;11.10;;;;;;;-3.26;79.43;101165.97;4954557;29;20039;-69
2022/11/28 06:35:00;;;;;;;19.98;9.75;;;;;;;-3.30;78.99;101167.09;4922669;29;20048;-69
2022/11/28 06:37:27;;;;;;;18.65;10.30;;;;;;;-3.27;79.03;101158.25;4954505;29;20043;-69
2022/11/28 06:39:53;;;;;;;19.70;11.65;;;;;;;-3.26;79.30;101165.97;4937357;29;20528;-68
2022/11/28 06:42:19;;;;;;;19.98;10.07;;;;;;;-3.17;79.21;101174.06;4936045;29;20047;-69
2022/11/28 06:44:44;;;;;;;19.92;10.35;;;;;;;-3.25;78.97;101153.81;4935744;29;20448;-69
2022/11/28 06:47:10;;;;;;;20.25;11.25;;;;;;;-3.17;78.79;101166.28;4953261;29;20046;-68
2022/11/28 06:49:36;;;;;;;23.48;12.20;;;;;;;-3.15;78.76;101165.19;4954390;29;20046;-70
2022/11/28 06:52:02;;;;;;;21.52;11.05;;;;;;;-3.17;78.96;101171.47;4935634;29;20043;-69
2022/11/28 06:54:28;;;;;;;21.08;11.07;;;;;;;-3.11;79.15;101171.03;4953206;29;20555;-68
2022/11/28 06:56:54;;;;;;;23.08;11.25;;;;;;;-3.08;78.31;101174.25;4919745;29;20039;-69
2022/11/28 06:59:19;;;;;;;18.73;9.98;;;;;;;-3.26;78.84;101167.72;4934525;29;20047;-69
2022/11/28 07:01:45;;;;;;;22.50;11.55;;;;;;;-3.24;79.32;101171.03;4952076;29;20134;-69
2022/11/28 07:04:11;;;;;;;21.02;10.90;;;;;;;-3.22;78.68;101163.97;4936880;29;20047;-69
2022/11/28 07:06:37;;;;;;;22.00;11.00;;;;;;;-3.17;78.66;101172.28;4933665;29;20417;-70
2022/11/28 07:09:04;;;;;;;19.05;10.85;;;;;;;-3.09;78.49;101163.97;4903330;29;20134;-72
2022/11/28 07:11:31;;;;;;;22.52;11.30;;;;;;;-3.09;78.61;101171.75;4919312;29;20044;-70
2022/11/28 07:13:59;;;;;;;16.98;10.25;;;;;;;-3.17;78.41;101168.88;4952338;29;20055;-70
2022/11/28 07:16:30;;;;;;;22.95;11.50;;;;;;;-3.16;78.81;101176.53;4952169;29;20044;-70
2022/11/28 07:18:56;;;;;;;25.02;12.27;;;;;;;-3.15;78.38;101161.78;4936144;29;20131;-69
2022/11/28 07:21:22;;;;;;;23.27;12.25;;;;;;;-3.03;78.23;101172.16;4936080;29;20390;-70
2022/11/28 07:23:48;;;;;;;24.50;11.60;;;;;;;-2.99;78.39;101183.97;4914388;29;20060;-70
2022/11/28 07:26:16;;;;;;;23.88;12.70;;;;;;;-2.94;78.35;101175.91;4912949;29;20103;-69
2022/11/28 07:28:43;;;;;;;22.23;11.77;;;;;;;-2.91;77.51;101180.88;4912348;29;20055;-69
2022/11/28 07:31:18;;;;;;;21.70;11.60;;;;;;;-2.89;77.89;101175.56;4895220;29;20048;-69
2022/11/28 07:33:46;;;;;;;22.00;12.43;;;;;;;-2.82;77.88;101179.41;4896203;29;20453;-69
2022/11/28 07:36:14;;;;;;;27.00;12.43;;;;;;;-2.89;77.75;101178.16;4910287;29;20044;-69
2022/11/28 07:38:40;;;;;;;25.92;12.27;;;;;;;-2.88;77.75;101190.19;4913638;29;20449;-68
2022/11/28 07:41:11;;;;;;;25.58;12.15;;;;;;;-2.86;77.47;101183.13;4911640;29;20044;-70
2022/11/28 07:43:39;;;;;;;22.67;11.68;;;;;;;-2.88;77.07;101183.25;4910096;29;20044;-70
2022/11/28 07:46:06;;;;;;;24.90;11.30;;;;;;;-2.86;77.55;101185.72;4894203;29;20123;-69
2022/11/28 07:48:37;;;;;;;21.05;11.13;;;;;;;-2.91;77.19;101180.88;4891977;29;20056;-70
2022/11/28 07:51:05;;;;;;;;;;;;;;;-2.92;77.43;101178.38;4911035;29;20044;-69
2022/11/28 07:53:30;;;;;;;23.17;12.45;;;;;;;-2.88;77.19;101172.88;4912349;29;19922;-69
2022/11/28 07:56:01;;;;;;;22.83;12.45;;;;;;;-2.85;77.35;101184.81;4913565;29;20108;-74
2022/11/28 07:58:26;;;;;;;23.75;12.63;;;;;;;-2.87;77.48;101184.91;4911763;29;20123;-69
2022/11/28 08:00:52;;;;;;;22.67;12.30;;;;;;;-2.78;77.14;101186.03;4913311;29;20048;-69
2022/11/28 08:03:18;;;;;;;28.25;14.77;;;;;;;-2.71;76.97;101181.22;4894950;29;20554;-69
2022/11/28 08:05:48;;;;;;;35.10;15.73;;;;;;;-2.69;76.33;101195.75;4910494;29;20051;-69
2022/11/28 08:08:19;;;;;;;29.52;16.63;;;;;;;-2.69;76.06;101200.13;4879831;29;20128;-70
2022/11/28 08:10:45;;;;;;;29.60;15.23;;;;;;;-2.69;75.91;101198.34;4908809;29;20142;-73
2022/11/28 08:13:13;;;;;;;29.83;13.63;;;;;;;-2.68;75.44;101200.00;4911665;29;20048;-70
2022/11/28 08:15:39;;;;;;;29.58;13.73;;;;;;;-2.73;75.40;101201.28;4907768;29;20127;-72
2022/11/28 08:18:09;;;;;;;31.50;13.15;;;;;;;-2.71;75.62;101205.41;4913341;29;20370;-70
2022/11/28 08:20:35;;;;;;;25.88;12.57;;;;;;;-2.65;75.05;101206.75;4912311;29;20051;-72
2022/11/28 08:23:01;;;;;;;24.25;12.43;;;;;;;-2.68;75.16;101202.59;4893588;29;20064;-71
2022/11/28 08:25:27;;;;;;;25.05;12.20;;;;;;;-2.61;75.15;101206.44;4929816;29;20052;-72
2022/11/28 08:27:53;;;;;;;25.42;12.88;;;;;;;-2.55;75.11;101205.19;4928757;29;20040;-72
2022/11/28 08:30:22;;;;;;;23.45;11.88;;;;;;;-2.55;74.83;101210.38;4911633;29;20062;-72
2022/11/28 08:32:48;;;;;;;23.33;12.25;;;;;;;-2.63;75.33;101197.94;4930338;29;20048;-73
2022/11/28 08:35:14;;;;;;;28.45;12.35;;;;;;;-2.62;75.34;101203.94;4913886;29;20486;-71
2022/11/28 08:37:40;;;;;;;27.48;11.75;;;;;;;-2.64;76.04;101211.84;4929667;29;20054;-70
2022/11/28 08:40:06;;;;;;;18.25;10.65;;;;;;;-2.77;75.89;101217.06;4929193;29;20493;-73
2022/11/28 08:42:37;;;;;;;19.25;10.60;;;;;;;-2.86;76.58;101215.09;4910308;29;20036;-71
2022/11/28 08:45:10;;;;;;;18.17;9.77;;;;;;;-2.84;76.16;101217.59;4893577;29;20048;-71
2022/11/28 08:47:37;;;;;;;18.15;9.57;;;;;;;-2.82;76.66;101216.56;4911264;29;20048;-72
2022/11/28 08:50:03;;;;;;;22.85;10.88;;;;;;;-2.83;76.12;101214.06;4897102;29;20054;-70
2022/11/28 08:52:29;;;;;;;18.73;10.50;;;;;;;-2.87;76.31;101207.44;4911094;29;20087;-71
2022/11/28 08:54:55;;;;;;;13.32;8.00;;;;;;;-2.91;75.81;101218.94;4914771;29;20505;-72
2022/11/28 08:57:21;;;;;;;17.23;9.88;;;;;;;-3.02;75.92;101211.91;4930475;29;20047;-71
2022/11/28 08:59:47;;;;;;;18.50;9.50;;;;;;;-2.95;75.71;101220.91;4929207;29;20147;-70
2022/11/28 09:02:14;;;;;;;15.77;8.90;;;;;;;-2.99;75.66;101220.31;4929972;29;20067;-71
2022/11/28 09:04:41;;;;;;;17.75;9.13;;;;;;;-3.00;75.58;101212.63;4930183;29;20048;-71
2022/11/28 09:07:06;;;;;;;16.92;9.95;;;;;;;-2.98;76.40;101216.78;4928919;29;20476;-72
2022/11/28 09:09:32;;;;;;;18.75;9.88;;;;;;;-2.86;75.62;101211.69;4930072;29;20138;-72
2022/11/28 09:11:58;;;;;;;15.88;8.70;;;;;;;-2.82;75.27;101215.75;4930335;29;20131;-71
2022/11/28 09:14:26;;;;;;;17.80;9.98;;;;;;;-2.76;75.23;101217.91;4927998;29;20449;-71
2022/11/28 09:16:52;;;;;;;17.35;9.60;;;;;;;-2.75;75.06;101217.78;4885764;29;20047;-71
2022/11/28 09:19:18;;;;;;;16.70;9.52;;;;;;;-2.68;74.57;101225.97;4912144;29;20453;-72
2022/11/28 09:21:44;;;;;;;14.57;9.23;;;;;;;-2.71;74.21;101217.56;4916025;29;20055;-71
2022/11/28 09:24:12;;;;;;;21.15;12.05;;;;;;;-2.60;74.71;101215.06;4918774;29;20048;-71
2022/11/28 09:26:38;;;;;;;19.13;10.73;;;;;;;-2.58;73.95;101221.00;4919246;29;20585;-72
2022/11/28 09:29:04;;;;;;;28.58;13.15;;;;;;;-2.64;73.74;101224.84;4917452;29;20445;-71
2022/11/28 09:31:30;;;;;;;20.95;10.30;;;;;;;-2.70;72.78;101214.88;4918051;29;20063;-73
2022/11/28 09:33:56;;;;;;;21.23;9.48;;;;;;;-2.73;73.03;101228.06;4934715;29;20043;-71
2022/11/28 09:36:23;;;;;;;21.35;9.88;;;;;;;-2.70;73.29;101232.22;4918773;29;20039;-72
2022/11/28 09:38:49;;;;;;;18.25;9.57;;;;;;;-2.75;73.02;101225.56;4934998;29;20421;-73
2022/11/28 09:41:27;;;;;;;16.77;8.65;;;;;;;-2.76;73.03;101229.13;4884752;29;20054;-72
2022/11/28 09:44:01;;;;;;;20.52;9.70;;;;;;;-2.76;73.39;101223.94;4916177;29;20453;-71
2022/11/28 09:46:33;;;;;;;20.63;9.10;;;;;;;-2.72;73.26;101231.50;4916391;29;20052;-71
2022/11/28 09:49:02;;;;;;;14.55;8.80;;;;;;;-2.63;73.21;101229.09;4916683;29;20163;-70
2022/11/28 09:52:00;;;;;;;13.15;7.68;;;;;;;-2.70;72.71;101237.41;4899039;29;20047;-72
2022/11/28 09:54:40;;;;;;;15.35;8.98;;;;;;;-2.74;73.03;101226.41;4915732;29;20555;-71
2022/11/28 09:57:17;;;;;;;18.80;8.95;;;;;;;-2.72;72.74;101234.09;4905936;29;20047;-72
2022/11/28 09:59:45;;;;;;;19.45;8.77;;;;;;;-2.72;73.16;101227.13;4934878;29;20102;-69
2022/11/28 10:02:35;;;;;;;17.95;8.85;;;;;;;-2.68;73.58;101233.75;4934970;29;20031;-68
2022/11/28 10:05:36;;;;;;;13.30;8.32;;;;;;;-2.78;73.34;101228.38;4920257;29;20077;-70
2022/11/28 10:09:21;;;;;;;17.65;8.40;;;;;;;-2.76;73.13;101239.50;4951593;29;20058;-69
2022/11/28 10:11:56;;;;;;;16.92;8.95;;;;;;;-2.79;73.58;101231.91;4949994;29;20058;-69
2022/11/28 10:14:45;;;;;;;18.25;8.52;;;;;;;-2.66;73.52;101223.28;4918608;29;20512;-69
2022/11/28 10:17:41;;;;;;;20.48;9.88;;;;;;;-2.56;72.91;101232.94;4932522;29;20417;-70
2022/11/28 10:20:14;;;;;;;15.90;9.50;;;;;;;-2.62;72.66;101225.56;4934263;29;20523;-70
2022/11/28 10:22:45;;;;;;;19.10;9.93;;;;;;;-2.61;73.05;101227.22;4933597;29;20066;-70
2022/11/28 10:25:21;;;;;;;17.13;10.60;;;;;;;-2.59;73.08;101229.69;4917947;29;20050;-67
2022/11/28 10:27:48;;;;;;;16.48;9.13;;;;;;;-2.58;72.85;101221.81;4901430;29;20039;-69
2022/11/28 10:30:20;;;;;;;17.13;9.50;;;;;;;-2.67;72.54;101217.25;4936200;29;20035;-69
2022/11/28 10:32:53;;;;;;;18.27;9.15;;;;;;;-2.59;73.17;101233.16;4922011;29;20059;-69
2022/11/28 10:35:53;;;;;;;16.02;9.55;;;;;;;-2.66;73.00;101231.06;4937052;29;20504;-69
2022/11/28 10:38:24;;;;;;;22.48;10.50;;;;;;;-2.58;72.81;101236.56;4918948;29;20047;-70
2022/11/28 10:41:07;;;;;;;18.27;9.13;;;;;;;-2.66;72.91;101225.88;4935408;29;20130;-68
2022/11/28 10:43:50;;;;;;;19.92;9.57;;;;;;;-2.73;73.05;101227.25;4935532;29;20042;-68
2022/11/28 10:46:22;;;;;;;15.90;9.15;;;;;;;-2.68;73.12;101222.56;4934216;29;20047;-68
2022/11/28 10:49:13;;;;;;;18.20;10.15;;;;;;;-2.70;72.79;101221.84;4950462;29;20095;-70
2022/11/28 10:52:18;;;;;;;19.77;10.43;;;;;;;-2.63;72.73;101225.66;4950267;29;20043;-69
2022/11/28 10:54:50;;;;;;;20.23;10.10;;;;;;;-2.61;73.01;101223.81;4917762;29;20047;-69
2022/11/28 10:57:23;;;;;;;18.80;9.23;;;;;;;-2.69;72.78;101229.50;4934461;29;20138;-70
2022/11/28 11:00:01;;;;;;;17.70;9.93;;;;;;;-2.65;72.83;101222.34;4936855;29;20063;-70
2022/11/28 11:02:29;;;;;;;27.13;12.70;;;;;;;-2.68;73.07;101222.56;4935224;29;20543;-69
2022/11/28 11:04:55;;;;;;;21.58;11.80;;;;;;;-2.70;72.84;101230.47;4918854;29;20101;-69
2022/11/28 11:07:29;;;;;;;25.88;13.25;;;;;;;-2.78;72.82;101215.41;4907183;29;20056;-70
2022/11/28 11:09:59;;;;;;;23.38;12.32;;;;;;;-2.72;73.22;101227.13;4932609;29;20098;-69
2022/11/28 11:12:27;;;;;;;19.50;11.65;;;;;;;-2.77;72.97;101227.44;4897769;29;20533;-70
2022/11/28 11:14:53;;;;;;;18.98;10.65;;;;;;;-2.78;72.62;101238.75;4933273;29;20047;-69
2022/11/28 11:17:27;;;;;;;21.05;12.50;;;;;;;-2.76;73.31;101223.94;4952543;29;20046;-71
2022/11/28 11:19:53;;;;;;;21.30;11.43;;;;;;;-2.77;73.29;101230.03;4953559;29;20044;-69
2022/11/28 11:22:25;;;;;;;21.95;12.30;;;;;;;-2.73;73.82;101235.88;4918147;29;20233;-68
2022/11/28 11:25:21;;;;;;;27.25;12.73;;;;;;;-2.77;73.71;101232.63;4951230;29;20043;-69
2022/11/28 11:27:59;;;;;;;21.40;11.75;;;;;;;-2.72;73.21;101228.91;4900661;29;20091;-70
2022/11/28 11:30:40;;;;;;;19.13;12.00;;;;;;;-2.66;72.98;101223.28;4920440;29;20747;-74
2022/11/28 11:33:13;;;;;;;20.33;11.85;;;;;;;-2.64;72.49;101227.44;4887479;29;20058;-73